createdAt,value
2018-07-23T00:00:04.234Z,12.90
2018-07-23T00:02:33.219Z,13.57
2018-07-23T00:05:02.099Z,13.30
2018-07-23T00:07:30.944Z,14.03
2018-07-23T00:09:59.763Z,13.37
2018-07-23T00:12:28.641Z,13.13
2018-07-23T00:14:57.578Z,13.90
2018-07-23T00:17:26.487Z,13.77
2018-07-23T00:19:55.355Z,14.83
2018-07-23T00:22:24.196Z,15.10
2018-07-23T00:24:52.650Z,14.17
2018-07-23T00:27:21.462Z,14.23
2018-07-23T00:29:50.170Z,14.60
2018-07-23T00:32:19.018Z,14.00
2018-07-23T00:34:47.970Z,14.20
2018-07-23T00:37:16.989Z,14.97
2018-07-23T00:39:45.840Z,14.57
2018-07-23T00:42:14.675Z,14.23
2018-07-23T00:44:43.531Z,14.47
2018-07-23T00:47:12.384Z,14.00
2018-07-23T00:49:41.169Z,14.77
2018-07-23T00:52:09.960Z,14.23
2018-07-23T00:54:38.776Z,13.60
2018-07-23T00:57:07.648Z,13.80
2018-07-23T00:59:36.503Z,15.10
2018-07-23T01:02:05.410Z,14.90
2018-07-23T01:04:34.177Z,12.23
2018-07-23T01:07:02.999Z,13.10
2018-07-23T01:09:31.745Z,13.60
2018-07-23T01:12:00.566Z,12.37
2018-07-23T01:14:29.329Z,14.07
2018-07-23T01:16:58.171Z,14.40
2018-07-23T01:19:27.054Z,13.67
2018-07-23T01:21:55.758Z,16.13
2018-07-23T01:24:24.679Z,14.50
2018-07-23T01:26:53.523Z,15.13
2018-07-23T01:29:22.342Z,14.97
2018-07-23T01:31:51.201Z,15.40
2018-07-23T01:34:20.104Z,15.17
2018-07-23T01:36:48.940Z,15.67
2018-07-23T01:39:17.759Z,14.30
2018-07-23T01:41:46.563Z,16.33
2018-07-23T01:44:15.402Z,17.53
2018-07-23T01:46:44.258Z,17.13
2018-07-23T01:49:13.086Z,14.73
2018-07-23T01:51:41.914Z,15.70
2018-07-23T01:54:10.811Z,15.23
2018-07-23T01:56:39.635Z,15.67
2018-07-23T01:59:08.483Z,16.20
2018-07-23T02:01:37.311Z,15.80
2018-07-23T02:04:06.179Z,14.90
2018-07-23T02:06:35.081Z,15.23
2018-07-23T02:09:07.167Z,17.40
2018-07-23T02:11:36.066Z,17.20
2018-07-23T02:14:04.963Z,16.30
2018-07-23T02:16:33.781Z,15.87
2018-07-23T02:19:02.719Z,15.97
2018-07-23T02:21:31.806Z,15.10
2018-07-23T02:24:00.699Z,15.90
2018-07-23T02:26:29.571Z,15.77
2018-07-23T02:28:58.528Z,15.90
2018-07-23T02:31:27.411Z,17.83
2018-07-23T02:33:56.186Z,16.03
2018-07-23T02:36:25.093Z,15.93
2018-07-23T02:38:54.035Z,17.30
2018-07-23T02:41:22.936Z,16.73
2018-07-23T02:43:51.778Z,17.23
2018-07-23T02:46:20.510Z,15.67
2018-07-23T02:48:49.384Z,14.60
2018-07-23T02:51:18.215Z,16.17
2018-07-23T02:53:47.116Z,16.33
2018-07-23T02:56:15.935Z,16.53
2018-07-23T02:58:44.763Z,16.60
2018-07-23T03:01:13.611Z,16.33
2018-07-23T03:03:42.477Z,16.43
2018-07-23T03:06:11.258Z,16.10
2018-07-23T03:08:40.105Z,16.67
2018-07-23T03:11:09.039Z,17.03
2018-07-23T03:13:37.875Z,16.67
2018-07-23T03:16:06.819Z,19.13
2018-07-23T03:18:35.659Z,18.20
2018-07-23T03:21:04.508Z,17.10
2018-07-23T03:23:33.310Z,17.63
2018-07-23T03:26:02.149Z,17.10
2018-07-23T03:28:31.046Z,15.83
2018-07-23T03:30:59.896Z,16.13
2018-07-23T03:33:28.991Z,18.10
2018-07-23T03:35:57.846Z,17.37
2018-07-23T03:38:26.699Z,17.77
2018-07-23T03:40:55.519Z,19.20
2018-07-23T03:43:24.415Z,20.60
2018-07-23T03:45:53.235Z,18.17
2018-07-23T03:48:22.138Z,17.87
2018-07-23T03:50:51.079Z,19.90
2018-07-23T03:53:19.967Z,19.47
2018-07-23T03:55:48.839Z,18.83
2018-07-23T03:58:17.691Z,18.17
2018-07-23T04:00:46.410Z,17.83
2018-07-23T04:03:15.272Z,18.27
2018-07-23T04:05:44.178Z,16.97
2018-07-23T04:08:13.042Z,18.20
2018-07-23T04:10:41.806Z,17.27
2018-07-23T04:13:10.677Z,17.50
2018-07-23T04:15:39.494Z,17.00
2018-07-23T04:18:08.258Z,17.43
2018-07-23T04:20:37.091Z,18.20
2018-07-23T04:23:06.356Z,18.37
2018-07-23T04:25:35.216Z,18.07
2018-07-23T04:28:04.139Z,17.57
2018-07-23T04:30:33.047Z,18.70
2018-07-23T04:33:01.912Z,18.63
2018-07-23T04:35:30.766Z,18.07
2018-07-23T04:37:59.656Z,18.57
2018-07-23T04:40:28.519Z,18.73
2018-07-23T04:42:57.374Z,18.77
2018-07-23T04:45:26.223Z,17.90
2018-07-23T04:47:55.239Z,17.70
2018-07-23T04:50:24.048Z,18.33
2018-07-23T04:52:52.899Z,20.03
2018-07-23T04:55:21.790Z,17.37
2018-07-23T04:57:51.510Z,21.20
2018-07-23T05:00:20.429Z,21.53
2018-07-23T05:02:49.269Z,20.13
2018-07-23T05:05:18.103Z,18.50
2018-07-23T05:07:46.990Z,21.40
2018-07-23T05:10:15.842Z,19.50
2018-07-23T05:12:44.750Z,19.27
2018-07-23T05:15:13.570Z,20.30
2018-07-23T05:17:42.407Z,20.07
2018-07-23T05:20:11.304Z,20.70
2018-07-23T05:22:40.160Z,20.27
2018-07-23T05:25:08.917Z,20.27
2018-07-23T05:27:37.743Z,21.00
2018-07-23T05:30:06.908Z,21.00
2018-07-23T05:32:35.744Z,19.43
2018-07-23T05:35:05.076Z,20.83
2018-07-23T05:37:33.931Z,20.30
2018-07-23T05:40:02.863Z,20.47
2018-07-23T05:42:31.978Z,22.07
2018-07-23T05:45:00.823Z,19.20
2018-07-23T05:47:29.744Z,21.53
2018-07-23T05:49:58.589Z,19.43
2018-07-23T05:52:27.434Z,21.30
2018-07-23T05:54:56.300Z,21.40
2018-07-23T05:57:25.151Z,22.00
2018-07-23T05:59:53.889Z,21.37
2018-07-23T06:02:22.748Z,18.63
2018-07-23T06:04:51.784Z,20.30
2018-07-23T06:07:20.686Z,20.23
2018-07-23T06:09:49.718Z,22.27
2018-07-23T06:12:18.745Z,21.50
2018-07-23T06:14:48.601Z,20.87
2018-07-23T06:17:17.767Z,21.57
2018-07-23T06:19:46.687Z,20.47
2018-07-23T06:22:15.565Z,20.00
2018-07-23T06:24:44.443Z,19.90
2018-07-23T06:27:13.441Z,22.13
2018-07-23T06:29:42.364Z,20.43
2018-07-23T06:32:11.954Z,20.63
2018-07-23T06:34:41.135Z,20.90
2018-07-23T06:37:10.239Z,21.60
2018-07-23T06:39:39.259Z,22.23
2018-07-23T06:42:08.176Z,22.07
2018-07-23T06:44:37.167Z,22.13
2018-07-23T06:47:06.089Z,20.60
2018-07-23T06:49:35.137Z,19.80
2018-07-23T06:52:04.104Z,20.27
2018-07-23T06:54:33.139Z,22.30
2018-07-23T06:57:02.032Z,20.90
2018-07-23T06:59:31.027Z,19.83
2018-07-23T07:02:00.092Z,20.03
2018-07-23T07:04:29.177Z,20.10
2018-07-23T07:06:58.247Z,20.53
2018-07-23T07:09:27.173Z,21.10
2018-07-23T07:11:56.070Z,22.50
2018-07-23T07:14:24.979Z,23.10
2018-07-23T07:16:54.055Z,21.70
2018-07-23T07:19:23.884Z,22.17
2018-07-23T07:21:52.939Z,22.73
2018-07-23T07:24:21.981Z,26.17
2018-07-23T07:26:51.019Z,23.30
2018-07-23T07:29:20.119Z,23.60
2018-07-23T07:31:49.039Z,24.70
2018-07-23T07:34:18.061Z,21.50
2018-07-23T07:36:46.984Z,22.67
2018-07-23T07:39:16.030Z,22.27
2018-07-23T07:41:45.077Z,21.63
2018-07-23T07:44:14.162Z,20.73
2018-07-23T07:46:43.057Z,21.10
2018-07-23T07:49:11.980Z,19.70
2018-07-23T07:51:40.883Z,22.13
2018-07-23T07:54:09.772Z,19.63
2018-07-23T07:56:38.797Z,19.17
2018-07-23T07:59:07.942Z,18.47
2018-07-23T08:01:36.802Z,19.40
2018-07-23T08:04:05.598Z,17.23
2018-07-23T08:06:34.611Z,15.80
2018-07-23T08:09:06.382Z,15.53
2018-07-23T08:11:35.288Z,14.37
2018-07-23T08:14:04.403Z,13.60
2018-07-23T08:16:33.552Z,11.63
2018-07-23T08:19:02.575Z,12.40
2018-07-23T08:21:31.603Z,10.80
2018-07-23T08:24:00.474Z,12.90
2018-07-23T08:26:29.554Z,12.20
2018-07-23T08:28:58.460Z,9.73
2018-07-23T08:31:27.501Z,9.47
2018-07-23T08:33:56.573Z,10.10
2018-07-23T08:36:25.621Z,9.33
2018-07-23T08:38:54.998Z,9.13
2018-07-23T08:41:23.908Z,10.33
2018-07-23T08:43:52.957Z,9.43
2018-07-23T08:46:21.900Z,9.50
2018-07-23T08:48:50.941Z,9.20
2018-07-23T08:51:19.899Z,8.03
2018-07-23T08:53:48.951Z,9.10
2018-07-23T08:56:17.983Z,7.70
2018-07-23T08:58:46.919Z,8.20
2018-07-23T09:01:15.967Z,9.00
2018-07-23T09:03:44.902Z,9.30
2018-07-23T09:06:13.975Z,9.00
2018-07-23T09:08:42.983Z,8.90
2018-07-23T09:11:12.016Z,8.53
2018-07-23T09:13:40.948Z,8.53
2018-07-23T09:16:09.983Z,9.00
2018-07-23T09:18:38.835Z,8.97
2018-07-23T09:21:07.861Z,8.40
2018-07-23T09:23:36.784Z,9.10
2018-07-23T09:26:06.541Z,9.67
2018-07-23T09:28:35.415Z,9.27
2018-07-23T09:31:04.479Z,9.80
2018-07-23T09:33:33.348Z,9.43
2018-07-23T09:36:02.363Z,10.20
2018-07-23T09:38:31.380Z,9.53
2018-07-23T09:41:00.466Z,9.70
2018-07-23T09:43:29.501Z,8.90
2018-07-23T09:45:58.408Z,10.30
2018-07-23T09:48:27.432Z,9.13
2018-07-23T09:50:56.177Z,8.30
2018-07-23T09:53:25.202Z,9.00
2018-07-23T09:55:54.255Z,8.20
2018-07-23T09:58:23.318Z,8.60
2018-07-23T10:00:56.470Z,8.20
2018-07-23T10:03:25.425Z,8.70
2018-07-23T10:05:54.715Z,7.80
2018-07-23T10:08:24.063Z,8.47
2018-07-23T10:10:53.157Z,9.13
2018-07-23T10:13:22.194Z,8.70
2018-07-23T10:15:51.101Z,9.07
2018-07-23T10:18:20.063Z,9.27
2018-07-23T10:20:48.930Z,9.67
2018-07-23T10:23:17.940Z,9.33
2018-07-23T10:25:47.056Z,8.43
2018-07-23T10:28:16.112Z,8.60
2018-07-23T10:30:45.020Z,8.80
2018-07-23T10:33:13.943Z,8.87
2018-07-23T10:35:42.983Z,8.67
2018-07-23T10:38:11.970Z,9.07
2018-07-23T10:40:41.035Z,8.70
2018-07-23T10:43:09.879Z,9.40
2018-07-23T10:45:38.764Z,10.17
2018-07-23T10:48:07.881Z,8.77
2018-07-23T10:50:36.765Z,9.30
2018-07-23T10:53:05.669Z,9.37
2018-07-23T10:55:34.603Z,8.87
2018-07-23T10:58:03.799Z,9.40
2018-07-23T11:00:32.815Z,9.10
2018-07-23T11:03:01.824Z,8.63
2018-07-23T11:05:30.782Z,8.13
2018-07-23T11:07:59.725Z,9.73
2018-07-23T11:10:28.607Z,10.13
2018-07-23T11:12:57.558Z,9.37
2018-07-23T11:15:26.588Z,8.70
2018-07-23T11:17:55.521Z,8.93
2018-07-23T11:20:24.532Z,10.00
2018-07-23T11:22:53.474Z,10.00
2018-07-23T11:25:38.811Z,9.20
2018-07-23T11:27:51.407Z,10.00
2018-07-23T11:30:20.214Z,10.40
2018-07-23T11:32:49.298Z,9.70
2018-07-23T11:35:18.221Z,9.20
2018-07-23T11:37:47.102Z,9.90
2018-07-23T11:40:16.007Z,10.17
2018-07-23T11:42:44.939Z,10.03
2018-07-23T11:45:14.033Z,10.40
2018-07-23T11:47:43.104Z,9.90
2018-07-23T11:50:12.272Z,11.47
2018-07-23T11:52:41.296Z,10.07
2018-07-23T11:55:10.394Z,9.17
2018-07-23T11:57:39.256Z,9.40
2018-07-23T12:00:08.205Z,9.23
2018-07-23T12:02:37.055Z,10.10
2018-07-23T12:05:06.149Z,10.50
2018-07-23T12:07:34.902Z,10.70
2018-07-23T12:10:03.927Z,11.43
2018-07-23T12:12:32.669Z,11.70
2018-07-23T12:15:01.579Z,10.30
2018-07-23T12:17:30.451Z,11.17
2018-07-23T12:19:59.275Z,10.90
2018-07-23T12:22:28.112Z,9.10
2018-07-23T12:24:57.466Z,10.43
2018-07-23T12:27:26.343Z,10.13
2018-07-23T12:29:55.231Z,9.90
2018-07-23T12:32:24.134Z,9.87
2018-07-23T12:34:52.882Z,10.93
2018-07-23T12:37:21.755Z,10.77
2018-07-23T12:39:51.632Z,9.70
2018-07-23T12:42:20.708Z,13.00
2018-07-23T12:44:49.581Z,9.40
2018-07-23T12:47:18.451Z,11.10
2018-07-23T12:49:47.351Z,9.60
2018-07-23T12:52:16.223Z,10.50
2018-07-23T12:54:45.057Z,10.60
2018-07-23T12:57:13.932Z,10.30
2018-07-23T12:59:42.825Z,10.37
2018-07-23T13:02:11.650Z,10.40
2018-07-23T13:04:40.377Z,10.67
2018-07-23T13:07:09.216Z,10.80
2018-07-23T13:09:38.084Z,11.00
2018-07-23T13:12:07.008Z,10.70
2018-07-23T13:14:35.925Z,9.57
2018-07-23T13:17:04.788Z,10.40
2018-07-23T13:19:33.626Z,10.47
2018-07-23T13:22:02.592Z,10.40
2018-07-23T13:24:31.456Z,9.47
2018-07-23T13:27:00.229Z,9.37
2018-07-23T13:29:29.070Z,9.37
2018-07-23T13:31:57.908Z,9.87
2018-07-23T13:34:26.791Z,9.90
2018-07-23T13:36:55.662Z,9.10
2018-07-23T13:39:24.566Z,10.37
2018-07-23T13:41:53.438Z,9.17
2018-07-23T13:44:22.382Z,8.80
2018-07-23T13:46:51.256Z,9.73
2018-07-23T13:49:20.103Z,9.20
2018-07-23T13:51:48.978Z,9.53
2018-07-23T13:54:17.691Z,10.13
2018-07-23T13:56:46.591Z,9.87
2018-07-23T13:59:15.486Z,9.87
2018-07-23T14:01:44.329Z,14.80
2018-07-23T14:04:13.276Z,11.20
2018-07-23T14:06:42.122Z,10.90
2018-07-23T14:09:12.043Z,9.90
2018-07-23T14:11:41.051Z,9.23
2018-07-23T14:14:09.893Z,10.40
2018-07-23T14:16:38.727Z,11.20
2018-07-23T14:19:07.600Z,10.73
2018-07-23T14:21:36.510Z,10.07
2018-07-23T14:24:05.423Z,10.43
2018-07-23T14:26:34.323Z,10.23
2018-07-23T14:29:03.199Z,11.00
2018-07-23T14:31:32.037Z,10.90
2018-07-23T14:34:01.328Z,10.37
2018-07-23T14:36:30.198Z,10.67
2018-07-23T14:38:59.150Z,10.83
2018-07-23T14:41:28.080Z,10.77
2018-07-23T14:43:57.081Z,10.90
2018-07-23T14:46:25.963Z,11.47
2018-07-23T14:48:54.879Z,9.63
2018-07-23T14:51:23.629Z,11.30
2018-07-23T14:53:52.476Z,10.93
2018-07-23T14:56:21.351Z,10.80
2018-07-23T14:58:50.488Z,9.70
2018-07-23T15:01:19.360Z,10.00
2018-07-23T15:03:48.252Z,10.50
2018-07-23T15:06:17.111Z,10.17
2018-07-23T15:08:45.961Z,10.57
2018-07-23T15:11:14.871Z,9.27
2018-07-23T15:13:43.733Z,10.80
2018-07-23T15:16:12.600Z,10.43
2018-07-23T15:18:41.475Z,11.00
2018-07-23T15:21:10.299Z,11.13
2018-07-23T15:23:39.156Z,11.60
2018-07-23T15:26:07.999Z,11.53
2018-07-23T15:28:36.978Z,11.27
2018-07-23T15:31:05.791Z,10.70
2018-07-23T15:33:34.633Z,11.90
2018-07-23T15:36:03.526Z,11.93
2018-07-23T15:38:32.750Z,11.40
2018-07-23T15:41:01.577Z,10.87
2018-07-23T15:43:30.412Z,11.30
2018-07-23T15:45:59.388Z,9.83
2018-07-23T15:48:28.267Z,12.03
2018-07-23T15:50:57.118Z,11.40
2018-07-23T15:53:25.983Z,11.80
2018-07-23T15:55:54.827Z,11.47
2018-07-23T15:58:23.662Z,11.50
2018-07-23T16:00:52.524Z,12.50
2018-07-23T16:03:21.359Z,10.83
2018-07-23T16:05:50.183Z,11.03
2018-07-23T16:08:19.073Z,11.20
2018-07-23T16:10:47.994Z,11.67
2018-07-23T16:13:16.810Z,11.80
2018-07-23T16:15:45.726Z,11.97
2018-07-23T16:18:14.558Z,12.30
2018-07-23T16:20:43.420Z,11.73
2018-07-23T16:23:12.246Z,11.00
2018-07-23T16:25:41.099Z,11.60
2018-07-23T16:28:09.959Z,11.47
2018-07-23T16:30:38.786Z,11.93
2018-07-23T16:33:07.668Z,11.60
2018-07-23T16:35:36.496Z,11.40
2018-07-23T16:38:05.506Z,11.40
2018-07-23T16:40:34.391Z,12.20
2018-07-23T16:43:03.327Z,11.27
2018-07-23T16:45:32.244Z,12.30
2018-07-23T16:48:01.128Z,11.57
2018-07-23T16:50:30.055Z,13.37
2018-07-23T16:52:58.923Z,13.23
2018-07-23T16:55:27.913Z,13.00
2018-07-23T16:57:56.752Z,11.37
2018-07-23T17:00:25.642Z,12.63
2018-07-23T17:03:01.281Z,17.00
2018-07-23T17:05:30.112Z,14.13
2018-07-23T17:07:59.066Z,11.77
2018-07-23T17:10:27.993Z,12.70
2018-07-23T17:12:56.964Z,11.83
2018-07-23T17:15:25.803Z,13.47
2018-07-23T17:17:54.755Z,13.67
2018-07-23T17:20:23.619Z,11.27
2018-07-23T17:22:52.441Z,12.23
2018-07-23T17:25:21.302Z,13.13
2018-07-23T17:27:50.180Z,13.00
2018-07-23T17:30:19.398Z,12.70
2018-07-23T17:32:48.331Z,14.07
2018-07-23T17:35:17.255Z,13.03
2018-07-23T17:37:46.144Z,13.13
2018-07-23T17:40:15.203Z,11.27
2018-07-23T17:42:44.063Z,12.87
2018-07-23T17:45:12.958Z,12.10
2018-07-23T17:47:41.823Z,11.70
2018-07-23T17:50:10.663Z,11.43
2018-07-23T17:52:39.515Z,12.20
2018-07-23T17:55:08.443Z,14.07
2018-07-23T17:57:37.327Z,12.30
2018-07-23T18:00:06.137Z,12.70
2018-07-23T18:02:34.999Z,12.17
2018-07-23T18:05:03.962Z,13.00
2018-07-23T18:07:32.851Z,13.60
2018-07-23T18:10:01.709Z,13.13
2018-07-23T18:12:30.538Z,13.63
2018-07-23T18:14:59.403Z,12.47
2018-07-23T18:17:28.291Z,13.43
2018-07-23T18:19:57.175Z,14.03
2018-07-23T18:22:26.052Z,13.90
2018-07-23T18:24:54.879Z,12.37
2018-07-23T18:27:24.695Z,12.83
2018-07-23T18:29:53.566Z,13.83
2018-07-23T18:32:22.546Z,13.33
2018-07-23T18:34:51.368Z,13.17
2018-07-23T18:37:20.256Z,12.80
2018-07-23T18:39:49.284Z,12.73
2018-07-23T18:42:18.508Z,13.20
2018-07-23T18:44:47.467Z,13.53
2018-07-23T18:47:16.800Z,12.33
2018-07-23T18:49:54.385Z,14.33
2018-07-23T18:52:24.629Z,12.93
2018-07-23T18:54:55.391Z,13.90
2018-07-23T18:57:25.072Z,13.30
2018-07-23T18:59:54.372Z,13.60
2018-07-23T19:02:23.307Z,13.50
2018-07-23T19:04:52.662Z,13.10
2018-07-23T19:07:21.651Z,13.83
2018-07-23T19:09:51.016Z,11.83
2018-07-23T19:12:20.208Z,13.40
2018-07-23T19:14:49.699Z,13.47
2018-07-23T19:17:18.704Z,14.90
2018-07-23T19:19:47.713Z,14.13
2018-07-23T19:22:16.655Z,15.07
2018-07-23T19:24:45.515Z,13.13
2018-07-23T19:27:14.438Z,17.13
2018-07-23T19:29:43.787Z,15.77
2018-07-23T19:32:13.651Z,16.60
2018-07-23T19:34:43.736Z,15.70
2018-07-23T19:37:12.667Z,14.50
2018-07-23T19:39:41.528Z,13.60
2018-07-23T19:42:11.041Z,14.63
2018-07-23T19:44:39.963Z,15.77
2018-07-23T19:47:08.903Z,16.90
2018-07-23T19:49:37.805Z,15.10
2018-07-23T19:52:07.062Z,14.57
2018-07-23T19:54:36.020Z,15.60
2018-07-23T19:57:04.888Z,14.33
2018-07-23T19:59:33.831Z,13.83
2018-07-23T20:02:02.720Z,12.90
2018-07-23T20:04:31.628Z,13.80
2018-07-23T20:07:00.391Z,13.30
2018-07-23T20:09:29.279Z,12.57
2018-07-23T20:11:58.222Z,13.10
2018-07-23T20:14:27.145Z,11.47
2018-07-23T20:17:03.397Z,13.30
2018-07-23T20:19:32.407Z,14.27
2018-07-23T20:22:01.832Z,13.67
2018-07-23T20:24:30.754Z,13.37
2018-07-23T20:26:59.614Z,13.90
2018-07-23T20:29:28.476Z,13.23
2018-07-23T20:31:57.415Z,13.80
2018-07-23T20:34:26.825Z,12.13
2018-07-23T20:36:55.948Z,12.60
2018-07-23T20:39:24.926Z,12.20
2018-07-23T20:41:53.722Z,12.90
2018-07-23T20:44:22.741Z,12.60
2018-07-23T20:46:51.560Z,13.10
2018-07-23T20:49:20.427Z,12.70
2018-07-23T20:51:49.347Z,13.57
2018-07-23T20:54:18.159Z,12.90
2018-07-23T20:56:46.995Z,12.33
2018-07-23T20:59:15.859Z,13.70
2018-07-23T21:01:44.712Z,13.37
2018-07-23T21:04:13.683Z,14.37
2018-07-23T21:06:42.606Z,12.77
2018-07-23T21:09:11.706Z,13.47
2018-07-23T21:11:40.665Z,12.50
2018-07-23T21:14:09.483Z,12.87
2018-07-23T21:16:38.400Z,13.97
2018-07-23T21:19:07.260Z,12.67
2018-07-23T21:21:36.104Z,14.13
2018-07-23T21:24:05.064Z,12.70
2018-07-23T21:26:33.921Z,12.90
2018-07-23T21:29:02.835Z,13.30
2018-07-23T21:31:31.707Z,12.73
2018-07-23T21:34:00.619Z,13.03
2018-07-23T21:36:29.507Z,13.20
2018-07-23T21:38:58.378Z,13.83
2018-07-23T21:41:27.278Z,13.33
2018-07-23T21:43:56.095Z,14.30
2018-07-23T21:46:24.968Z,13.33
2018-07-23T21:48:53.809Z,14.63
2018-07-23T21:51:22.777Z,13.13
2018-07-23T21:53:51.648Z,13.73
2018-07-23T21:56:20.503Z,13.50
2018-07-23T21:58:49.374Z,13.03
2018-07-23T22:01:18.267Z,13.13
2018-07-23T22:03:47.012Z,13.03
2018-07-23T22:06:19.380Z,12.70
2018-07-23T22:08:48.102Z,13.10
2018-07-23T22:11:16.983Z,14.20
2018-07-23T22:13:45.924Z,14.80
2018-07-23T22:16:14.764Z,14.30
2018-07-23T22:18:43.641Z,13.73
2018-07-23T22:21:12.576Z,13.90
2018-07-23T22:23:41.742Z,13.83
2018-07-23T22:26:10.579Z,13.90
2018-07-23T22:28:39.444Z,13.10
2018-07-23T22:31:08.291Z,14.60
2018-07-23T22:33:37.119Z,13.60
2018-07-23T22:36:06.292Z,13.70
2018-07-23T22:38:35.126Z,15.33
2018-07-23T22:41:03.971Z,16.37
2018-07-23T22:43:32.816Z,14.77
2018-07-23T22:46:01.711Z,14.80
2018-07-23T22:48:30.576Z,14.20
2018-07-23T22:50:59.743Z,15.43
2018-07-23T22:53:28.608Z,14.00
2018-07-23T22:55:57.466Z,14.13
2018-07-23T22:58:26.547Z,14.50
2018-07-23T23:00:55.400Z,15.83
2018-07-23T23:03:24.268Z,15.00
2018-07-23T23:05:53.127Z,14.50
2018-07-23T23:08:21.990Z,14.60
2018-07-23T23:10:50.867Z,14.90
2018-07-23T23:13:19.752Z,14.97
2018-07-23T23:15:48.590Z,13.47
2018-07-23T23:18:17.403Z,15.70
2018-07-23T23:20:46.154Z,15.30
2018-07-23T23:23:14.975Z,15.20
2018-07-23T23:25:43.783Z,14.60
2018-07-23T23:28:12.651Z,14.50
2018-07-23T23:30:41.388Z,15.87
2018-07-23T23:33:10.271Z,14.07
2018-07-23T23:35:39.147Z,15.83
2018-07-23T23:38:08.067Z,15.30
2018-07-23T23:40:36.951Z,16.27
2018-07-23T23:43:06.275Z,16.83
2018-07-23T23:45:35.087Z,15.60
2018-07-23T23:48:04.019Z,14.87
2018-07-23T23:50:32.810Z,15.47
2018-07-23T23:53:01.671Z,15.37
2018-07-23T23:55:30.552Z,15.43
2018-07-23T23:57:59.376Z,15.37
